createdAt,value
2022-10-29T00:02:02.565Z,14.68
2022-10-29T00:06:09.127Z,13.77
2022-10-29T00:10:12.360Z,13.77
2022-10-29T00:14:15.394Z,14.50
2022-10-29T00:18:18.983Z,14.60
2022-10-29T00:22:23.913Z,15.27
2022-10-29T00:26:30.762Z,14.52
2022-10-29T00:30:33.897Z,14.80
2022-10-29T00:34:38.919Z,17.23
2022-10-29T00:38:44.211Z,16.15
2022-10-29T00:42:47.454Z,14.48
2022-10-29T00:46:53.797Z,14.57
2022-10-29T00:50:59.035Z,14.98
2022-10-29T00:55:08.642Z,13.07
2022-10-29T00:59:11.784Z,11.68
2022-10-29T01:03:14.944Z,10.85
2022-10-29T01:07:18.161Z,10.40
2022-10-29T01:11:33.338Z,11.93
2022-10-29T01:15:44.223Z,12.35
2022-10-29T01:20:09.483Z,11.00
2022-10-29T01:24:46.877Z,10.82
2022-10-29T01:29:08.504Z,12.35
2022-10-29T01:33:18.328Z,11.93
2022-10-29T01:37:25.812Z,9.38
2022-10-29T01:41:40.693Z,10.02
2022-10-29T01:45:49.734Z,10.18
2022-10-29T01:50:00.214Z,11.23
2022-10-29T01:54:08.289Z,10.18
2022-10-29T01:58:12.748Z,16.48
2022-10-29T02:02:26.685Z,11.90
2022-10-29T02:06:43.763Z,9.77
2022-10-29T02:10:54.277Z,13.23
2022-10-29T02:15:03.868Z,11.15
2022-10-29T02:19:07.237Z,11.52
2022-10-29T02:23:12.168Z,10.70
2022-10-29T02:27:15.297Z,10.88
2022-10-29T02:31:18.330Z,13.00
2022-10-29T02:35:21.300Z,11.40
2022-10-29T02:39:25.883Z,10.73
2022-10-29T02:43:28.907Z,12.38
2022-10-29T02:47:31.912Z,8.85
2022-10-29T02:51:35.421Z,7.43
2022-10-29T02:55:39.852Z,10.77
2022-10-29T02:59:43.049Z,8.45
2022-10-29T03:03:46.070Z,8.60
2022-10-29T03:07:49.162Z,10.55
2022-10-29T03:11:53.544Z,10.93
2022-10-29T03:15:56.706Z,9.90
2022-10-29T03:19:59.944Z,11.45
2022-10-29T03:24:02.979Z,9.63
2022-10-29T03:28:07.659Z,9.10
2022-10-29T03:32:10.647Z,9.43
2022-10-29T03:36:13.857Z,9.30
2022-10-29T03:40:19.347Z,10.98
2022-10-29T03:44:23.810Z,10.30
2022-10-29T03:48:27.133Z,9.98
2022-10-29T03:52:30.295Z,9.63
2022-10-29T03:56:33.315Z,10.35
2022-10-29T04:00:37.882Z,11.35
2022-10-29T04:04:40.930Z,10.85
2022-10-29T04:08:44.299Z,10.20
2022-10-29T04:12:47.793Z,10.18
2022-10-29T04:16:52.194Z,11.52
2022-10-29T04:29:41.505Z,8.95
2022-10-29T04:33:46.229Z,10.95
2022-10-29T04:37:49.484Z,7.82
2022-10-29T04:41:52.537Z,9.35
2022-10-29T04:45:56.667Z,9.95
2022-10-29T04:50:01.114Z,9.60
2022-10-29T04:54:04.147Z,8.32
2022-10-29T04:58:08.110Z,8.98
2022-10-29T05:02:11.711Z,7.45
2022-10-29T05:06:16.080Z,9.68
2022-10-29T05:10:19.080Z,9.20
2022-10-29T05:14:22.117Z,7.35
2022-10-29T05:18:25.486Z,10.23
2022-10-29T05:22:29.893Z,8.38
2022-10-29T05:26:33.299Z,10.10
2022-10-29T05:30:36.677Z,9.15
2022-10-29T05:34:44.367Z,8.95
2022-10-29T05:38:49.121Z,8.38
2022-10-29T05:42:52.189Z,7.40
2022-10-29T05:46:55.318Z,9.57
2022-10-29T05:50:58.468Z,11.43
2022-10-29T05:55:03.061Z,11.23
2022-10-29T05:59:06.087Z,9.25
2022-10-29T06:03:14.026Z,9.60
2022-10-29T06:07:17.224Z,8.30
2022-10-29T06:11:21.824Z,13.88
2022-10-29T06:15:24.886Z,10.93
2022-10-29T06:19:27.903Z,9.77
2022-10-29T06:23:31.173Z,12.60
2022-10-29T06:27:35.708Z,8.95
2022-10-29T06:31:38.948Z,10.02
2022-10-29T06:35:42.088Z,11.60
2022-10-29T06:39:45.311Z,11.80
2022-10-29T06:43:49.825Z,9.82
2022-10-29T06:47:53.276Z,12.48
2022-10-29T06:51:56.484Z,12.85
2022-10-29T06:56:00.281Z,12.00
2022-10-29T07:00:08.433Z,12.57
2022-10-29T07:04:11.770Z,8.95
2022-10-29T07:08:15.085Z,11.23
2022-10-29T07:12:18.153Z,10.93
2022-10-29T07:16:22.550Z,9.82
2022-10-29T07:20:26.440Z,11.88
2022-10-29T07:24:29.649Z,10.05
2022-10-29T07:28:32.858Z,11.48
2022-10-29T07:32:37.222Z,10.65
2022-10-29T07:36:40.215Z,12.88
2022-10-29T07:40:48.596Z,12.25
2022-10-29T07:44:51.630Z,9.02
2022-10-29T07:48:56.000Z,9.85
2022-10-29T07:53:00.659Z,10.00
2022-10-29T07:57:03.859Z,10.73
2022-10-29T08:01:07.367Z,9.20
2022-10-29T08:05:11.861Z,10.52
2022-10-29T08:09:15.000Z,8.30
2022-10-29T08:13:18.031Z,8.30
2022-10-29T08:17:21.038Z,8.48
2022-10-29T08:21:25.511Z,12.32
2022-10-29T08:25:29.144Z,12.57
2022-10-29T08:29:32.270Z,11.57
2022-10-29T08:33:35.335Z,8.88
2022-10-29T08:37:43.279Z,12.38
2022-10-29T08:41:57.458Z,12.07
2022-10-29T08:46:01.457Z,11.02
2022-10-29T08:50:13.047Z,11.90
2022-10-29T08:54:31.130Z,13.02
2022-10-29T08:58:38.659Z,13.68
2022-10-29T09:02:41.804Z,15.23
2022-10-29T09:06:52.762Z,16.63
2022-10-29T09:11:01.311Z,14.27
2022-10-29T09:15:26.296Z,14.55
2022-10-29T09:19:42.860Z,12.65
2022-10-29T09:23:58.479Z,10.52
2022-10-29T09:28:21.243Z,14.68
2022-10-29T09:32:28.580Z,13.32
2022-10-29T09:36:32.631Z,11.02
2022-10-29T09:40:38.885Z,13.77
2022-10-29T09:44:51.189Z,11.98
2022-10-29T09:49:04.457Z,12.52
2022-10-29T09:53:09.216Z,14.45
2022-10-29T09:57:20.792Z,15.65
2022-10-29T10:01:25.443Z,14.35
2022-10-29T10:05:30.876Z,13.60
2022-10-29T10:09:55.410Z,13.93
2022-10-29T10:14:00.950Z,13.85
2022-10-29T10:18:07.196Z,13.93
2022-10-29T10:22:19.930Z,14.52
2022-10-29T10:26:34.979Z,19.02
2022-10-29T10:30:38.010Z,21.45
2022-10-29T10:34:42.685Z,15.93
2022-10-29T10:38:48.342Z,17.83
2022-10-29T10:42:54.404Z,16.42
2022-10-29T10:47:00.408Z,18.38
2022-10-29T10:51:17.487Z,17.58
2022-10-29T10:55:25.314Z,21.92
2022-10-29T10:59:38.842Z,20.92
2022-10-29T11:03:47.297Z,16.38
2022-10-29T11:07:59.164Z,21.27
2022-10-29T11:12:07.280Z,17.60
2022-10-29T11:16:17.762Z,19.75
2022-10-29T11:20:25.231Z,18.83
2022-10-29T11:24:40.126Z,20.52
2022-10-29T11:28:48.850Z,21.40
2022-10-29T11:33:01.237Z,21.65
2022-10-29T11:37:13.501Z,21.38
2022-10-29T11:41:26.397Z,24.42
2022-10-29T11:45:41.220Z,26.15
2022-10-29T11:50:00.786Z,23.75
2022-10-29T11:54:08.248Z,22.83
2022-10-29T11:58:19.520Z,30.05
2022-10-29T12:02:33.520Z,21.73
2022-10-29T12:06:42.810Z,18.92
2022-10-29T12:10:51.943Z,21.52
2022-10-29T12:15:05.191Z,16.70
2022-10-29T12:19:19.564Z,17.17
2022-10-29T12:23:37.592Z,16.08
2022-10-29T12:27:47.098Z,22.98
2022-10-29T12:31:58.178Z,18.83
2022-10-29T12:36:09.331Z,19.58
2022-10-29T12:40:19.388Z,20.02
2022-10-29T12:44:31.230Z,16.92
2022-10-29T12:48:43.098Z,17.52
2022-10-29T12:52:51.214Z,17.95
2022-10-29T12:56:56.606Z,12.20
2022-10-29T13:01:00.044Z,16.35
2022-10-29T13:05:38.598Z,13.15
2022-10-29T13:09:44.306Z,13.80
2022-10-29T13:13:57.514Z,18.75
2022-10-29T13:18:07.449Z,17.58
2022-10-29T13:26:57.789Z,17.90
2022-10-29T13:31:34.182Z,14.73
2022-10-29T13:35:41.847Z,11.02
2022-10-29T13:39:44.905Z,12.88
2022-10-29T13:43:58.869Z,11.88
2022-10-29T13:48:06.163Z,12.60
2022-10-29T13:52:16.029Z,13.57
2022-10-29T13:56:26.362Z,15.18
2022-10-29T14:00:31.733Z,14.10
2022-10-29T14:04:40.134Z,12.93
2022-10-29T14:08:48.990Z,13.90
2022-10-29T14:12:56.743Z,14.32
2022-10-29T14:17:16.608Z,14.50
2022-10-29T14:21:24.491Z,13.27
2022-10-29T14:25:31.892Z,12.13
2022-10-29T14:29:34.927Z,19.15
2022-10-29T14:33:41.479Z,13.52
2022-10-29T14:37:46.427Z,15.48
2022-10-29T14:41:51.104Z,13.40
2022-10-29T14:45:55.886Z,15.02
2022-10-29T14:50:02.865Z,15.80
2022-10-29T14:54:08.786Z,14.57
2022-10-29T14:58:19.041Z,17.40
2022-10-29T15:02:39.413Z,11.73
2022-10-29T15:06:44.206Z,11.80
2022-10-29T15:10:49.967Z,10.55
2022-10-29T15:14:54.647Z,15.30
2022-10-29T15:18:58.742Z,12.15
2022-10-29T15:23:03.830Z,13.27
2022-10-29T15:27:07.555Z,10.55
2022-10-29T15:31:20.569Z,13.23
2022-10-29T15:35:24.834Z,13.02
2022-10-29T15:39:50.410Z,15.48
2022-10-29T15:43:55.920Z,12.20
2022-10-29T15:48:19.555Z,12.63
2022-10-29T15:52:28.175Z,12.48
2022-10-29T15:56:32.858Z,10.73
2022-10-29T16:00:36.264Z,13.25
2022-10-29T16:04:39.408Z,13.48
2022-10-29T16:08:45.193Z,12.25
2022-10-29T16:12:50.516Z,12.45
2022-10-29T16:16:53.551Z,11.20
2022-10-29T16:21:05.429Z,15.23
2022-10-29T16:25:16.643Z,12.70
2022-10-29T16:29:21.205Z,13.48
2022-10-29T16:33:24.434Z,11.13
2022-10-29T16:37:27.499Z,14.18
2022-10-29T16:41:31.573Z,14.75
2022-10-29T16:45:36.597Z,13.45
2022-10-29T16:49:39.578Z,15.65
2022-10-29T16:53:42.875Z,12.82
2022-10-29T16:57:46.037Z,13.98
2022-10-29T17:01:50.469Z,12.60
2022-10-29T17:05:53.517Z,11.82
2022-10-29T17:09:56.592Z,14.00
2022-10-29T17:13:59.557Z,13.90
2022-10-29T17:18:03.969Z,12.65
2022-10-29T17:22:10.568Z,12.70
2022-10-29T17:26:13.631Z,10.27
2022-10-29T17:30:16.711Z,13.65
2022-10-29T17:34:21.069Z,13.45
2022-10-29T17:38:24.077Z,12.38
2022-10-29T17:42:27.504Z,19.00
2022-10-29T17:46:30.723Z,15.65
2022-10-29T17:50:35.285Z,15.18
2022-10-29T17:54:38.595Z,19.92
2022-10-29T17:58:41.591Z,18.52
2022-10-29T18:02:44.700Z,18.75
2022-10-29T18:06:49.218Z,15.02
2022-10-29T18:10:53.580Z,13.38
2022-10-29T18:14:56.601Z,13.93
2022-10-29T18:19:03.119Z,15.60
2022-10-29T18:23:07.748Z,14.27
2022-10-29T18:27:10.801Z,15.55
2022-10-29T18:31:13.811Z,12.07
2022-10-29T18:35:17.135Z,18.25
2022-10-29T18:39:21.526Z,16.20
2022-10-29T18:43:26.429Z,13.68
2022-10-29T18:47:29.437Z,16.75
2022-10-29T18:51:33.233Z,14.27
2022-10-29T18:55:37.864Z,14.13
2022-10-29T18:59:40.962Z,16.58
2022-10-29T19:03:44.842Z,15.57
2022-10-29T19:07:47.845Z,19.70
2022-10-29T19:11:55.409Z,17.42
2022-10-29T19:16:02.865Z,17.45
2022-10-29T19:20:06.941Z,18.73
2022-10-29T19:24:14.258Z,18.00
2022-10-29T19:28:18.637Z,17.83
2022-10-29T19:32:21.672Z,19.92
2022-10-29T19:36:26.072Z,15.40
2022-10-29T19:40:30.070Z,17.92
2022-10-29T19:44:34.621Z,13.85
2022-10-29T19:48:37.687Z,16.63
2022-10-29T19:52:40.681Z,13.93
2022-10-29T19:56:43.709Z,15.50
2022-10-29T20:00:48.179Z,17.23
2022-10-29T20:04:51.258Z,16.27
2022-10-29T20:08:54.307Z,17.00
2022-10-29T20:12:58.209Z,18.75
2022-10-29T20:17:03.113Z,15.70
2022-10-29T20:21:07.215Z,13.02
2022-10-29T20:25:10.588Z,19.73
2022-10-29T20:29:15.344Z,17.52
2022-10-29T20:33:19.818Z,23.63
2022-10-29T20:37:22.927Z,18.23
2022-10-29T20:41:26.305Z,18.45
2022-10-29T20:45:29.302Z,18.45
2022-10-29T20:49:33.731Z,17.75
2022-10-29T20:53:36.987Z,22.17
2022-10-29T20:57:40.109Z,14.85
2022-10-29T21:01:51.843Z,18.98
2022-10-29T21:06:01.757Z,20.17
2022-10-29T21:10:05.569Z,18.30
2022-10-29T21:14:08.688Z,19.42
2022-10-29T21:18:11.713Z,18.33
2022-10-29T21:22:18.869Z,23.05
2022-10-29T21:26:24.182Z,20.73
2022-10-29T21:30:27.284Z,19.52
2022-10-29T21:34:30.274Z,18.55
2022-10-29T21:38:34.859Z,18.73
2022-10-29T21:42:38.002Z,19.30
2022-10-29T21:46:41.035Z,22.15
2022-10-29T21:50:44.128Z,21.63
2022-10-29T21:54:48.530Z,20.42
2022-10-29T21:58:52.392Z,23.63
2022-10-29T22:02:57.978Z,23.08
2022-10-29T22:07:04.645Z,20.92
2022-10-29T22:11:09.443Z,16.48
2022-10-29T22:15:13.558Z,18.35
2022-10-29T22:19:16.554Z,20.35
2022-10-29T22:23:19.577Z,19.17
2022-10-29T22:27:24.033Z,17.00
2022-10-29T22:31:27.543Z,16.58
2022-10-29T22:35:30.618Z,17.52
2022-10-29T22:39:33.627Z,16.23
2022-10-29T22:43:38.862Z,21.77
2022-10-29T22:47:41.902Z,16.90
2022-10-29T22:51:45.174Z,17.70
2022-10-29T22:55:52.906Z,16.90
2022-10-29T22:59:57.314Z,17.63
2022-10-29T23:04:01.068Z,19.38
2022-10-29T23:08:04.313Z,21.33
2022-10-29T23:12:07.687Z,18.67
2022-10-29T23:16:12.069Z,15.88
2022-10-29T23:20:15.166Z,22.77
2022-10-29T23:24:18.281Z,17.38
2022-10-29T23:28:21.443Z,16.15
2022-10-29T23:32:25.855Z,19.20
2022-10-29T23:36:29.001Z,18.25
2022-10-29T23:40:32.121Z,16.13
2022-10-29T23:44:35.138Z,17.50
2022-10-29T23:48:39.556Z,18.60
2022-10-29T23:52:42.649Z,17.30
2022-10-29T23:56:45.656Z,16.38
